sensor_id;sensor_type;location;lat;lon;timestamp;pressure;altitude;pressure_sealevel;temperature;humidity
29467;BME280;60968;37.490;-122.288;2022-07-30T00:00:18;98342.66;;;19.07;71.37
29467;BME280;60968;37.490;-122.288;2022-07-30T00:03:19;98336.69;;;18.89;72.08
29467;BME280;60968;37.490;-122.288;2022-07-30T00:06:19;98343.00;;;18.71;73.10
29467;BME280;60968;37.490;-122.288;2022-07-30T00:09:20;98349.41;;;18.50;73.79
29467;BME280;60968;37.490;-122.288;2022-07-30T00:12:21;98343.34;;;18.34;74.31
29467;BME280;60968;37.490;-122.288;2022-07-30T00:15:22;98345.63;;;18.08;75.67
29467;BME280;60968;37.490;-122.288;2022-07-30T00:18:23;98343.00;;;17.92;77.06
29467;BME280;60968;37.490;-122.288;2022-07-30T00:21:24;98348.78;;;17.99;76.35
29467;BME280;60968;37.490;-122.288;2022-07-30T00:24:25;98349.13;;;18.09;75.84
29467;BME280;60968;37.490;-122.288;2022-07-30T00:27:26;98345.88;;;18.04;76.03
29467;BME280;60968;37.490;-122.288;2022-07-30T00:30:27;98342.91;;;17.94;76.46
29467;BME280;60968;37.490;-122.288;2022-07-30T00:33:28;98354.34;;;17.77;77.24
29467;BME280;60968;37.490;-122.288;2022-07-30T00:36:28;98351.63;;;17.78;77.61
29467;BME280;60968;37.490;-122.288;2022-07-30T00:39:29;98341.91;;;17.63;78.37
29467;BME280;60968;37.490;-122.288;2022-07-30T00:42:59;98346.56;;;17.58;79.16
29467;BME280;60968;37.490;-122.288;2022-07-30T00:46:00;98354.91;;;17.66;78.69
29467;BME280;60968;37.490;-122.288;2022-07-30T00:49:01;98346.06;;;17.51;79.54
29467;BME280;60968;37.490;-122.288;2022-07-30T00:52:02;98351.63;;;17.45;79.88
29467;BME280;60968;37.490;-122.288;2022-07-30T00:55:04;98349.00;;;17.45;79.50
29467;BME280;60968;37.490;-122.288;2022-07-30T00:58:06;98345.53;;;17.44;79.60
29467;BME280;60968;37.490;-122.288;2022-07-30T01:01:06;98347.72;;;17.36;80.70
29467;BME280;60968;37.490;-122.288;2022-07-30T01:04:07;98349.13;;;17.26;80.77
29467;BME280;60968;37.490;-122.288;2022-07-30T01:07:08;98343.31;;;17.19;81.19
29467;BME280;60968;37.490;-122.288;2022-07-30T01:10:11;98355.09;;;16.94;82.56
29467;BME280;60968;37.490;-122.288;2022-07-30T01:13:12;98363.63;;;17.00;82.32
29467;BME280;60968;37.490;-122.288;2022-07-30T01:16:13;98368.31;;;16.75;83.27
29467;BME280;60968;37.490;-122.288;2022-07-30T01:19:24;98360.81;;;16.85;83.50
29467;BME280;60968;37.490;-122.288;2022-07-30T01:28:49;98367.28;;;16.60;84.94
29467;BME280;60968;37.490;-122.288;2022-07-30T01:31:54;98370.69;;;16.62;84.69
29467;BME280;60968;37.490;-122.288;2022-07-30T01:34:57;98371.13;;;16.53;85.17
29467;BME280;60968;37.490;-122.288;2022-07-30T01:38:01;98375.84;;;16.46;85.55
29467;BME280;60968;37.490;-122.288;2022-07-30T01:41:04;98380.19;;;16.28;87.00
29467;BME280;60968;37.490;-122.288;2022-07-30T01:44:06;98378.38;;;16.11;88.29
29467;BME280;60968;37.490;-122.288;2022-07-30T01:47:10;98384.22;;;15.99;88.88
29467;BME280;60968;37.490;-122.288;2022-07-30T01:50:14;98391.38;;;15.95;89.40
29467;BME280;60968;37.490;-122.288;2022-07-30T01:53:23;98379.06;;;15.96;89.75
29467;BME280;60968;37.490;-122.288;2022-07-30T01:56:25;98392.34;;;15.93;90.27
29467;BME280;60968;37.490;-122.288;2022-07-30T01:59:27;98381.69;;;15.77;91.04
29467;BME280;60968;37.490;-122.288;2022-07-30T02:02:30;98381.09;;;15.70;91.64
29467;BME280;60968;37.490;-122.288;2022-07-30T02:05:31;98384.47;;;15.53;92.53
29467;BME280;60968;37.490;-122.288;2022-07-30T02:08:40;98387.69;;;15.60;92.61
29467;BME280;60968;37.490;-122.288;2022-07-30T02:11:44;98389.81;;;15.52;92.63
29467;BME280;60968;37.490;-122.288;2022-07-30T02:14:54;98388.16;;;15.49;92.60
29467;BME280;60968;37.490;-122.288;2022-07-30T02:18:43;98392.88;;;15.61;91.49
29467;BME280;60968;37.490;-122.288;2022-07-30T02:21:23;98389.94;;;15.49;91.77
29467;BME280;60968;37.490;-122.288;2022-07-30T02:24:27;98400.06;;;15.37;92.42
29467;BME280;60968;37.490;-122.288;2022-07-30T02:27:34;98412.31;;;15.37;92.48
29467;BME280;60968;37.490;-122.288;2022-07-30T02:30:41;98410.56;;;15.17;94.06
29467;BME280;60968;37.490;-122.288;2022-07-30T02:33:44;98415.13;;;15.12;94.89
29467;BME280;60968;37.490;-122.288;2022-07-30T02:36:48;98422.09;;;15.13;94.36
29467;BME280;60968;37.490;-122.288;2022-07-30T02:39:50;98420.09;;;14.97;95.21
29467;BME280;60968;37.490;-122.288;2022-07-30T02:42:53;98422.53;;;15.02;96.09
29467;BME280;60968;37.490;-122.288;2022-07-30T02:45:54;98422.38;;;15.06;95.71
29467;BME280;60968;37.490;-122.288;2022-07-30T02:48:57;98426.47;;;14.91;96.40
29467;BME280;60968;37.490;-122.288;2022-07-30T02:51:59;98426.31;;;14.74;97.61
29467;BME280;60968;37.490;-122.288;2022-07-30T02:55:01;98436.00;;;14.72;98.90
29467;BME280;60968;37.490;-122.288;2022-07-30T02:58:05;98438.56;;;14.50;100.00
29467;BME280;60968;37.490;-122.288;2022-07-30T03:01:07;98445.91;;;14.41;100.00
29467;BME280;60968;37.490;-122.288;2022-07-30T03:04:10;98443.00;;;14.26;100.00
29467;BME280;60968;37.490;-122.288;2022-07-30T03:07:13;98448.81;;;14.34;100.00
29467;BME280;60968;37.490;-122.288;2022-07-30T03:10:15;98450.66;;;14.32;100.00
29467;BME280;60968;37.490;-122.288;2022-07-30T03:13:17;98463.91;;;14.27;100.00
29467;BME280;60968;37.490;-122.288;2022-07-30T03:16:21;98456.97;;;14.26;100.00
29467;BME280;60968;37.490;-122.288;2022-07-30T03:19:25;98466.03;;;14.17;100.00
29467;BME280;60968;37.490;-122.288;2022-07-30T03:22:28;98466.13;;;14.14;100.00
29467;BME280;60968;37.490;-122.288;2022-07-30T03:25:31;98469.13;;;14.05;100.00
29467;BME280;60968;37.490;-122.288;2022-07-30T03:28:36;98465.56;;;14.06;100.00
29467;BME280;60968;37.490;-122.288;2022-07-30T03:31:38;98463.53;;;14.14;100.00
29467;BME280;60968;37.490;-122.288;2022-07-30T03:34:40;98458.97;;;14.19;100.00
29467;BME280;60968;37.490;-122.288;2022-07-30T03:37:42;98457.31;;;14.17;100.00
29467;BME280;60968;37.490;-122.288;2022-07-30T03:40:44;98461.25;;;14.05;100.00
29467;BME280;60968;37.490;-122.288;2022-07-30T03:43:46;98465.94;;;13.97;100.00
29467;BME280;60968;37.490;-122.288;2022-07-30T03:46:47;98465.47;;;13.85;100.00
29467;BME280;60968;37.490;-122.288;2022-07-30T03:49:48;98474.41;;;13.80;100.00
29467;BME280;60968;37.490;-122.288;2022-07-30T03:52:49;98466.78;;;13.72;100.00
29467;BME280;60968;37.490;-122.288;2022-07-30T03:55:51;98476.38;;;13.73;100.00
29467;BME280;60968;37.490;-122.288;2022-07-30T03:58:52;98478.34;;;13.66;100.00
29467;BME280;60968;37.490;-122.288;2022-07-30T04:01:53;98485.41;;;13.64;100.00
29467;BME280;60968;37.490;-122.288;2022-07-30T04:04:58;98475.91;;;13.62;100.00
29467;BME280;60968;37.490;-122.288;2022-07-30T04:07:59;98486.25;;;13.65;100.00
29467;BME280;60968;37.490;-122.288;2022-07-30T04:11:00;98496.63;;;13.68;100.00
29467;BME280;60968;37.490;-122.288;2022-07-30T04:14:01;98485.19;;;13.70;100.00
29467;BME280;60968;37.490;-122.288;2022-07-30T04:17:03;98497.50;;;13.68;100.00
29467;BME280;60968;37.490;-122.288;2022-07-30T04:20:09;98498.22;;;13.72;100.00
29467;BME280;60968;37.490;-122.288;2022-07-30T04:23:13;98502.25;;;13.81;100.00
29467;BME280;60968;37.490;-122.288;2022-07-30T04:26:17;98501.94;;;13.90;100.00
29467;BME280;60968;37.490;-122.288;2022-07-30T04:29:18;98508.03;;;13.90;100.00
29467;BME280;60968;37.490;-122.288;2022-07-30T04:32:19;98507.78;;;13.98;100.00
29467;BME280;60968;37.490;-122.288;2022-07-30T04:35:30;98507.34;;;14.11;100.00
29467;BME280;60968;37.490;-122.288;2022-07-30T04:38:32;98519.22;;;13.96;100.00
29467;BME280;60968;37.490;-122.288;2022-07-30T04:41:33;98522.91;;;13.90;100.00
29467;BME280;60968;37.490;-122.288;2022-07-30T04:44:34;98528.41;;;13.82;100.00
29467;BME280;60968;37.490;-122.288;2022-07-30T04:47:34;98531.41;;;13.71;100.00
29467;BME280;60968;37.490;-122.288;2022-07-30T04:50:38;98540.31;;;13.66;100.00
29467;BME280;60968;37.490;-122.288;2022-07-30T04:53:41;98524.69;;;13.64;100.00
29467;BME280;60968;37.490;-122.288;2022-07-30T04:56:46;98525.75;;;13.59;100.00
29467;BME280;60968;37.490;-122.288;2022-07-30T04:59:48;98522.91;;;13.65;100.00
29467;BME280;60968;37.490;-122.288;2022-07-30T05:02:50;98525.28;;;13.71;100.00
29467;BME280;60968;37.490;-122.288;2022-07-30T05:05:52;98529.09;;;13.62;100.00
29467;BME280;60968;37.490;-122.288;2022-07-30T05:08:54;98534.22;;;13.65;100.00
29467;BME280;60968;37.490;-122.288;2022-07-30T05:11:55;98528.94;;;13.67;100.00
29467;BME280;60968;37.490;-122.288;2022-07-30T05:14:56;98539.50;;;13.64;100.00
29467;BME280;60968;37.490;-122.288;2022-07-30T05:17:57;98545.91;;;13.55;100.00
29467;BME280;60968;37.490;-122.288;2022-07-30T05:20:58;98538.59;;;13.65;100.00
29467;BME280;60968;37.490;-122.288;2022-07-30T05:23:59;98541.16;;;13.66;100.00
29467;BME280;60968;37.490;-122.288;2022-07-30T05:27:00;98536.88;;;13.64;100.00
29467;BME280;60968;37.490;-122.288;2022-07-30T05:30:01;98534.22;;;13.65;100.00
29467;BME280;60968;37.490;-122.288;2022-07-30T05:33:02;98534.56;;;13.56;100.00
29467;BME280;60968;37.490;-122.288;2022-07-30T05:36:03;98533.00;;;13.50;100.00
29467;BME280;60968;37.490;-122.288;2022-07-30T05:39:03;98539.72;;;13.58;100.00
29467;BME280;60968;37.490;-122.288;2022-07-30T05:42:04;98542.25;;;13.61;100.00
29467;BME280;60968;37.490;-122.288;2022-07-30T05:45:06;98535.22;;;13.61;100.00
29467;BME280;60968;37.490;-122.288;2022-07-30T05:48:07;98536.78;;;13.67;100.00
29467;BME280;60968;37.490;-122.288;2022-07-30T05:51:07;98528.78;;;13.71;100.00
29467;BME280;60968;37.490;-122.288;2022-07-30T05:54:08;98527.72;;;13.77;100.00
29467;BME280;60968;37.490;-122.288;2022-07-30T05:57:09;98531.94;;;13.81;100.00
29467;BME280;60968;37.490;-122.288;2022-07-30T06:00:11;98529.41;;;13.78;100.00
29467;BME280;60968;37.490;-122.288;2022-07-30T06:03:12;98520.94;;;13.71;100.00
29467;BME280;60968;37.490;-122.288;2022-07-30T06:06:13;98521.78;;;13.72;100.00
29467;BME280;60968;37.490;-122.288;2022-07-30T06:09:14;98524.41;;;13.72;100.00
29467;BME280;60968;37.490;-122.288;2022-07-30T06:12:15;98529.53;;;13.75;100.00
29467;BME280;60968;37.490;-122.288;2022-07-30T06:15:16;98534.22;;;13.65;100.00
29467;BME280;60968;37.490;-122.288;2022-07-30T06:18:17;98522.19;;;13.60;100.00
29467;BME280;60968;37.490;-122.288;2022-07-30T06:21:18;98531.09;;;13.54;100.00
29467;BME280;60968;37.490;-122.288;2022-07-30T06:24:18;98528.56;;;13.52;100.00
29467;BME280;60968;37.490;-122.288;2022-07-30T06:27:19;98533.72;;;13.54;100.00
29467;BME280;60968;37.490;-122.288;2022-07-30T06:30:20;98541.59;;;13.54;100.00
29467;BME280;60968;37.490;-122.288;2022-07-30T06:33:21;98541.69;;;13.51;100.00
29467;BME280;60968;37.490;-122.288;2022-07-30T06:36:21;98544.06;;;13.59;100.00
29467;BME280;60968;37.490;-122.288;2022-07-30T06:39:22;98550.81;;;13.66;100.00
29467;BME280;60968;37.490;-122.288;2022-07-30T06:42:26;98549.88;;;13.67;100.00
29467;BME280;60968;37.490;-122.288;2022-07-30T06:45:27;98543.13;;;13.60;100.00
29467;BME280;60968;37.490;-122.288;2022-07-30T06:48:29;98546.56;;;13.62;100.00
29467;BME280;60968;37.490;-122.288;2022-07-30T06:51:30;98543.91;;;13.63;100.00
29467;BME280;60968;37.490;-122.288;2022-07-30T06:54:31;98538.56;;;13.66;100.00
29467;BME280;60968;37.490;-122.288;2022-07-30T06:57:32;98541.06;;;13.69;100.00
29467;BME280;60968;37.490;-122.288;2022-07-30T07:00:33;98540.94;;;13.72;100.00
29467;BME280;60968;37.490;-122.288;2022-07-30T07:03:33;98538.97;;;13.79;100.00
29467;BME280;60968;37.490;-122.288;2022-07-30T07:06:35;98547.06;;;13.73;100.00
29467;BME280;60968;37.490;-122.288;2022-07-30T07:09:35;98548.81;;;13.72;100.00
29467;BME280;60968;37.490;-122.288;2022-07-30T07:12:36;98546.28;;;13.69;100.00
29467;BME280;60968;37.490;-122.288;2022-07-30T07:15:37;98555.97;;;13.67;100.00
29467;BME280;60968;37.490;-122.288;2022-07-30T07:18:38;98556.03;;;13.66;100.00
29467;BME280;60968;37.490;-122.288;2022-07-30T07:21:39;98554.31;;;13.65;100.00
29467;BME280;60968;37.490;-122.288;2022-07-30T07:24:40;98552.47;;;13.67;100.00
29467;BME280;60968;37.490;-122.288;2022-07-30T07:27:40;98542.00;;;13.67;100.00
29467;BME280;60968;37.490;-122.288;2022-07-30T07:30:41;98544.59;;;13.68;100.00
29467;BME280;60968;37.490;-122.288;2022-07-30T07:33:42;98542.94;;;13.66;100.00
29467;BME280;60968;37.490;-122.288;2022-07-30T07:36:43;98548.84;;;13.71;100.00
29467;BME280;60968;37.490;-122.288;2022-07-30T07:39:44;98558.50;;;13.70;100.00
29467;BME280;60968;37.490;-122.288;2022-07-30T07:42:44;98559.44;;;13.68;100.00
29467;BME280;60968;37.490;-122.288;2022-07-30T07:45:45;98554.22;;;13.68;100.00
29467;BME280;60968;37.490;-122.288;2022-07-30T07:48:46;98556.78;;;13.69;100.00
29467;BME280;60968;37.490;-122.288;2022-07-30T07:51:47;98540.31;;;13.66;100.00
29467;BME280;60968;37.490;-122.288;2022-07-30T07:54:48;98551.88;;;13.60;100.00
29467;BME280;60968;37.490;-122.288;2022-07-30T07:57:48;98551.00;;;13.60;100.00
29467;BME280;60968;37.490;-122.288;2022-07-30T08:00:49;98554.66;;;13.54;100.00
29467;BME280;60968;37.490;-122.288;2022-07-30T08:03:50;98559.16;;;13.50;100.00
29467;BME280;60968;37.490;-122.288;2022-07-30T08:06:51;98558.25;;;13.51;100.00
29467;BME280;60968;37.490;-122.288;2022-07-30T08:09:52;98552.16;;;13.51;100.00
29467;BME280;60968;37.490;-122.288;2022-07-30T08:12:53;98559.97;;;13.52;100.00
29467;BME280;60968;37.490;-122.288;2022-07-30T08:15:54;98547.78;;;13.51;100.00
29467;BME280;60968;37.490;-122.288;2022-07-30T08:18:55;98546.81;;;13.54;100.00
29467;BME280;60968;37.490;-122.288;2022-07-30T08:21:56;98542.81;;;13.44;100.00
29467;BME280;60968;37.490;-122.288;2022-07-30T08:24:56;98546.25;;;13.44;100.00
29467;BME280;60968;37.490;-122.288;2022-07-30T08:27:57;98541.84;;;13.46;100.00
29467;BME280;60968;37.490;-122.288;2022-07-30T08:30:58;98545.13;;;13.53;100.00
29467;BME280;60968;37.490;-122.288;2022-07-30T08:33:59;98547.78;;;13.51;100.00
29467;BME280;60968;37.490;-122.288;2022-07-30T08:37:00;98541.47;;;13.57;100.00
29467;BME280;60968;37.490;-122.288;2022-07-30T08:40:01;98541.34;;;13.62;100.00
29467;BME280;60968;37.490;-122.288;2022-07-30T08:43:04;98536.41;;;13.52;100.00
29467;BME280;60968;37.490;-122.288;2022-07-30T08:46:08;98535.72;;;13.47;100.00
29467;BME280;60968;37.490;-122.288;2022-07-30T08:49:11;98531.44;;;13.45;100.00
29467;BME280;60968;37.490;-122.288;2022-07-30T08:52:12;98534.19;;;13.40;100.00
29467;BME280;60968;37.490;-122.288;2022-07-30T08:55:13;98531.50;;;13.43;100.00
29467;BME280;60968;37.490;-122.288;2022-07-30T08:58:27;98539.03;;;13.52;100.00
29467;BME280;60968;37.490;-122.288;2022-07-30T09:01:28;98531.00;;;13.57;100.00
29467;BME280;60968;37.490;-122.288;2022-07-30T09:04:29;98526.41;;;13.64;100.00
29467;BME280;60968;37.490;-122.288;2022-07-30T09:07:34;98533.38;;;13.65;100.00
29467;BME280;60968;37.490;-122.288;2022-07-30T09:10:35;98535.72;;;13.72;100.00
29467;BME280;60968;37.490;-122.288;2022-07-30T09:13:38;98521.78;;;13.72;100.00
29467;BME280;60968;37.490;-122.288;2022-07-30T09:16:40;98526.06;;;13.75;100.00
29467;BME280;60968;37.490;-122.288;2022-07-30T09:20:01;98534.63;;;13.80;100.00
29467;BME280;60968;37.490;-122.288;2022-07-30T09:23:04;98534.63;;;13.78;100.00
29467;BME280;60968;37.490;-122.288;2022-07-30T09:26:05;98538.72;;;13.87;100.00
29467;BME280;60968;37.490;-122.288;2022-07-30T09:29:16;98529.84;;;13.91;100.00
29467;BME280;60968;37.490;-122.288;2022-07-30T09:32:18;98533.59;;;13.84;100.00
29467;BME280;60968;37.490;-122.288;2022-07-30T09:35:19;98531.66;;;13.89;100.00
29467;BME280;60968;37.490;-122.288;2022-07-30T09:38:20;98521.25;;;13.87;100.00
29467;BME280;60968;37.490;-122.288;2022-07-30T09:41:34;98525.63;;;13.87;100.00
29467;BME280;60968;37.490;-122.288;2022-07-30T09:44:35;98526.59;;;13.84;100.00
29467;BME280;60968;37.490;-122.288;2022-07-30T09:47:38;98525.75;;;13.84;100.00
29467;BME280;60968;37.490;-122.288;2022-07-30T09:50:47;98524.94;;;13.82;100.00
29467;BME280;60968;37.490;-122.288;2022-07-30T09:53:57;98526.72;;;13.81;100.00
29467;BME280;60968;37.490;-122.288;2022-07-30T09:57:05;98526.91;;;13.75;100.00
29467;BME280;60968;37.490;-122.288;2022-07-30T10:06:36;98542.78;;;13.70;100.00
29467;BME280;60968;37.490;-122.288;2022-07-30T10:09:36;98547.06;;;13.73;100.00
29467;BME280;60968;37.490;-122.288;2022-07-30T10:12:38;98553.19;;;13.72;100.00
29467;BME280;60968;37.490;-122.288;2022-07-30T10:15:39;98554.91;;;13.73;100.00
29467;BME280;60968;37.490;-122.288;2022-07-30T10:18:43;98553.09;;;13.75;100.00
29467;BME280;60968;37.490;-122.288;2022-07-30T10:21:44;98554.03;;;13.72;100.00
29467;BME280;60968;37.490;-122.288;2022-07-30T10:24:46;98544.50;;;13.71;100.00
29467;BME280;60968;37.490;-122.288;2022-07-30T10:27:48;98547.97;;;13.72;100.00
29467;BME280;60968;37.490;-122.288;2022-07-30T10:30:50;98555.97;;;13.67;100.00
29467;BME280;60968;37.490;-122.288;2022-07-30T10:33:52;98546.41;;;13.66;100.00
29467;BME280;60968;37.490;-122.288;2022-07-30T10:36:56;98541.00;;;13.71;100.00
29467;BME280;60968;37.490;-122.288;2022-07-30T10:40:18;98545.16;;;13.77;100.00
29467;BME280;60968;37.490;-122.288;2022-07-30T10:53:10;98534.88;;;13.72;100.00
29467;BME280;60968;37.490;-122.288;2022-07-30T10:56:30;98522.97;;;13.63;100.00
29467;BME280;60968;37.490;-122.288;2022-07-30T11:03:20;98529.16;;;13.61;100.00
29467;BME280;60968;37.490;-122.288;2022-07-30T11:09:39;98538.84;;;13.59;100.00
29467;BME280;60968;37.490;-122.288;2022-07-30T11:16:07;98538.84;;;13.57;100.00
29467;BME280;60968;37.490;-122.288;2022-07-30T11:19:15;98532.00;;;13.54;100.00
29467;BME280;60968;37.490;-122.288;2022-07-30T11:22:26;98527.44;;;13.60;100.00
29467;BME280;60968;37.490;-122.288;2022-07-30T11:31:37;98533.78;;;13.52;100.00
29467;BME280;60968;37.490;-122.288;2022-07-30T11:34:38;98529.56;;;13.48;100.00
29467;BME280;60968;37.490;-122.288;2022-07-30T11:44:31;98525.16;;;13.50;100.00
29467;BME280;60968;37.490;-122.288;2022-07-30T11:47:31;98529.19;;;13.59;100.00
29467;BME280;60968;37.490;-122.288;2022-07-30T11:50:33;98525.53;;;13.65;100.00
29467;BME280;60968;37.490;-122.288;2022-07-30T11:53:35;98537.66;;;13.67;100.00
29467;BME280;60968;37.490;-122.288;2022-07-30T11:56:36;98534.09;;;13.70;100.00
29467;BME280;60968;37.490;-122.288;2022-07-30T11:59:55;98528.09;;;13.66;100.00
29467;BME280;60968;37.490;-122.288;2022-07-30T12:02:56;98522.84;;;13.66;100.00
29467;BME280;60968;37.490;-122.288;2022-07-30T12:06:05;98515.22;;;13.60;100.00
29467;BME280;60968;37.490;-122.288;2022-07-30T12:09:06;98516.28;;;13.54;100.00
29467;BME280;60968;37.490;-122.288;2022-07-30T12:12:27;98520.03;;;13.47;100.00
29467;BME280;60968;37.490;-122.288;2022-07-30T12:15:30;98519.31;;;13.42;100.00
29467;BME280;60968;37.490;-122.288;2022-07-30T12:18:32;98521.09;;;13.40;100.00
29467;BME280;60968;37.490;-122.288;2022-07-30T12:21:33;98521.16;;;13.38;100.00
29467;BME280;60968;37.490;-122.288;2022-07-30T12:24:34;98526.44;;;13.37;100.00
29467;BME280;60968;37.490;-122.288;2022-07-30T12:27:35;98532.50;;;13.39;100.00
29467;BME280;60968;37.490;-122.288;2022-07-30T12:30:39;98532.56;;;13.36;100.00
29467;BME280;60968;37.490;-122.288;2022-07-30T12:33:40;98533.13;;;13.46;100.00
29467;BME280;60968;37.490;-122.288;2022-07-30T12:36:41;98534.00;;;13.46;100.00
29467;BME280;60968;37.490;-122.288;2022-07-30T12:39:42;98540.19;;;13.44;100.00
29467;BME280;60968;37.490;-122.288;2022-07-30T12:42:52;98544.59;;;13.43;100.00
29467;BME280;60968;37.490;-122.288;2022-07-30T12:45:57;98540.19;;;13.44;100.00
29467;BME280;60968;37.490;-122.288;2022-07-30T12:49:00;98536.50;;;13.49;100.00
29467;BME280;60968;37.490;-122.288;2022-07-30T12:52:01;98544.97;;;13.58;100.00
29467;BME280;60968;37.490;-122.288;2022-07-30T12:58:07;98552.66;;;13.62;100.00
29467;BME280;60968;37.490;-122.288;2022-07-30T13:01:08;98546.56;;;13.62;100.00
29467;BME280;60968;37.490;-122.288;2022-07-30T13:04:10;98562.34;;;13.60;100.00
29467;BME280;60968;37.490;-122.288;2022-07-30T13:07:11;98567.63;;;13.59;100.00
29467;BME280;60968;37.490;-122.288;2022-07-30T13:10:13;98567.81;;;13.52;100.00
29467;BME280;60968;37.490;-122.288;2022-07-30T13:13:14;98579.16;;;13.53;100.00
29467;BME280;60968;37.490;-122.288;2022-07-30T13:16:16;98594.81;;;13.54;100.00
29467;BME280;60968;37.490;-122.288;2022-07-30T13:19:17;98584.97;;;13.61;100.00
29467;BME280;60968;37.490;-122.288;2022-07-30T13:22:18;98596.31;;;13.62;100.00
29467;BME280;60968;37.490;-122.288;2022-07-30T13:25:18;98600.66;;;13.61;100.00
29467;BME280;60968;37.490;-122.288;2022-07-30T13:28:19;98594.34;;;13.68;100.00
29467;BME280;60968;37.490;-122.288;2022-07-30T13:31:24;98593.59;;;13.65;100.00
29467;BME280;60968;37.490;-122.288;2022-07-30T13:34:25;98595.97;;;13.71;100.00
29467;BME280;60968;37.490;-122.288;2022-07-30T13:37:25;98594.97;;;13.75;100.00
29467;BME280;60968;37.490;-122.288;2022-07-30T13:40:27;98601.81;;;13.79;100.00
29467;BME280;60968;37.490;-122.288;2022-07-30T13:43:28;98598.25;;;13.82;100.00
29467;BME280;60968;37.490;-122.288;2022-07-30T13:46:29;98599.00;;;13.85;100.00
29467;BME280;60968;37.490;-122.288;2022-07-30T13:49:30;98605.81;;;13.91;100.00
29467;BME280;60968;37.490;-122.288;2022-07-30T13:52:32;98605.59;;;13.97;100.00
29467;BME280;60968;37.490;-122.288;2022-07-30T13:55:33;98596.44;;;14.09;100.00
29467;BME280;60968;37.490;-122.288;2022-07-30T13:58:35;98602.97;;;14.22;100.00
29467;BME280;60968;37.490;-122.288;2022-07-30T14:01:35;98608.97;;;14.26;100.00
29467;BME280;60968;37.490;-122.288;2022-07-30T14:04:36;98613.75;;;14.38;100.00
29467;BME280;60968;37.490;-122.288;2022-07-30T14:07:39;98609.13;;;14.45;100.00
29467;BME280;60968;37.490;-122.288;2022-07-30T14:10:40;98615.66;;;14.58;100.00
29467;BME280;60968;37.490;-122.288;2022-07-30T14:13:40;98609.81;;;14.75;100.00
29467;BME280;60968;37.490;-122.288;2022-07-30T14:16:41;98619.56;;;14.72;100.00
29467;BME280;60968;37.490;-122.288;2022-07-30T14:19:42;98617.50;;;14.80;100.00
29467;BME280;60968;37.490;-122.288;2022-07-30T14:22:45;98622.28;;;14.92;100.00
29467;BME280;60968;37.490;-122.288;2022-07-30T14:25:46;98616.97;;;14.94;100.00
29467;BME280;60968;37.490;-122.288;2022-07-30T14:28:48;98614.09;;;15.00;100.00
29467;BME280;60968;37.490;-122.288;2022-07-30T14:31:49;98616.06;;;15.17;99.67
29467;BME280;60968;37.490;-122.288;2022-07-30T14:34:50;98615.19;;;15.40;99.67
29467;BME280;60968;37.490;-122.288;2022-07-30T14:37:51;98621.75;;;15.51;97.40
29467;BME280;60968;37.490;-122.288;2022-07-30T14:40:51;98608.06;;;15.42;97.36
29467;BME280;60968;37.490;-122.288;2022-07-30T14:43:52;98609.72;;;15.45;96.98
29467;BME280;60968;37.490;-122.288;2022-07-30T14:46:53;98610.41;;;15.50;97.18
29467;BME280;60968;37.490;-122.288;2022-07-30T14:49:54;98608.34;;;15.58;97.48
29467;BME280;60968;37.490;-122.288;2022-07-30T14:52:55;98614.22;;;15.64;95.84
29467;BME280;60968;37.490;-122.288;2022-07-30T14:55:55;98617.25;;;15.75;95.46
29467;BME280;60968;37.490;-122.288;2022-07-30T14:58:56;98615.28;;;15.82;94.95
29467;BME280;60968;37.490;-122.288;2022-07-30T15:01:57;98612.84;;;15.98;94.97
29467;BME280;60968;37.490;-122.288;2022-07-30T15:04:58;98609.91;;;16.26;92.99
29467;BME280;60968;37.490;-122.288;2022-07-30T15:07:58;98611.50;;;16.49;91.46
29467;BME280;60968;37.490;-122.288;2022-07-30T15:10:59;98606.19;;;16.70;89.96
29467;BME280;60968;37.490;-122.288;2022-07-30T15:14:00;98605.84;;;17.15;87.74
29467;BME280;60968;37.490;-122.288;2022-07-30T15:17:02;98609.34;;;17.53;85.52
29467;BME280;60968;37.490;-122.288;2022-07-30T15:20:03;98601.09;;;17.95;83.27
29467;BME280;60968;37.490;-122.288;2022-07-30T15:23:04;98596.56;;;18.66;79.96
29467;BME280;60968;37.490;-122.288;2022-07-30T15:26:05;98601.09;;;19.60;73.30
29467;BME280;60968;37.490;-122.288;2022-07-30T15:29:06;98604.03;;;19.69;73.20
29467;BME280;60968;37.490;-122.288;2022-07-30T15:32:06;98603.59;;;19.77;72.06
29467;BME280;60968;37.490;-122.288;2022-07-30T15:35:07;98610.44;;;19.65;71.45
29467;BME280;60968;37.490;-122.288;2022-07-30T15:38:08;98602.81;;;19.91;70.29
29467;BME280;60968;37.490;-122.288;2022-07-30T15:41:09;98598.63;;;20.17;69.15
29467;BME280;60968;37.490;-122.288;2022-07-30T15:44:10;98610.63;;;20.37;67.47
29467;BME280;60968;37.490;-122.288;2022-07-30T15:47:11;98605.34;;;21.10;66.19
29467;BME280;60968;37.490;-122.288;2022-07-30T15:50:12;98599.59;;;22.88;59.07
29467;BME280;60968;37.490;-122.288;2022-07-30T15:53:13;98602.97;;;23.03;57.69
29467;BME280;60968;37.490;-122.288;2022-07-30T15:56:13;98598.56;;;24.57;52.01
29467;BME280;60968;37.490;-122.288;2022-07-30T15:59:14;98584.56;;;24.89;49.83
29467;BME280;60968;37.490;-122.288;2022-07-30T16:02:15;98592.00;;;25.29;49.60
29467;BME280;60968;37.490;-122.288;2022-07-30T16:05:16;98585.66;;;25.41;48.31
29467;BME280;60968;37.490;-122.288;2022-07-30T16:08:17;98585.13;;;26.12;46.81